createdAt,value
2023-05-07T00:01:54.673Z,17.41
2023-05-07T00:04:22.887Z,17.52
2023-05-07T00:06:53.648Z,17.67
2023-05-07T00:09:21.703Z,17.64
2023-05-07T00:11:49.796Z,17.67
2023-05-07T00:14:18.187Z,17.69
2023-05-07T00:16:46.308Z,17.76
2023-05-07T00:19:16.553Z,17.76
2023-05-07T00:21:45.116Z,17.61
2023-05-07T00:24:14.503Z,17.23
2023-05-07T00:26:42.779Z,17.02
2023-05-07T00:29:10.961Z,16.72
2023-05-07T00:31:39.226Z,16.54
2023-05-07T00:34:08.090Z,16.40
2023-05-07T00:36:36.034Z,16.27
2023-05-07T00:39:04.757Z,16.01
2023-05-07T00:41:34.387Z,15.86
2023-05-07T00:44:03.538Z,15.49
2023-05-07T00:46:35.380Z,15.36
2023-05-07T00:49:04.072Z,15.57
2023-05-07T00:51:32.110Z,15.90
2023-05-07T00:54:01.724Z,16.08
2023-05-07T00:56:30.032Z,16.11
2023-05-07T00:59:03.157Z,16.32
2023-05-07T01:01:31.368Z,16.39
2023-05-07T01:03:59.888Z,16.34
2023-05-07T01:06:29.772Z,16.38
2023-05-07T01:08:58.671Z,16.43
2023-05-07T01:11:27.032Z,16.49
2023-05-07T01:13:55.256Z,16.50
2023-05-07T01:16:25.191Z,16.60
2023-05-07T01:18:53.394Z,16.68
2023-05-07T01:21:27.633Z,16.81
2023-05-07T01:24:00.617Z,16.86
2023-05-07T01:26:28.974Z,16.93
2023-05-07T01:28:57.023Z,17.01
2023-05-07T01:31:25.645Z,17.13
2023-05-07T01:33:54.200Z,17.26
2023-05-07T01:36:23.909Z,17.33
2023-05-07T01:38:53.054Z,17.07
2023-05-07T01:41:23.111Z,17.00
2023-05-07T01:43:53.238Z,17.28
2023-05-07T01:46:21.777Z,17.27
2023-05-07T01:48:50.237Z,17.18
2023-05-07T01:51:18.202Z,17.25
2023-05-07T01:53:48.832Z,17.18
2023-05-07T01:56:16.806Z,17.16
2023-05-07T01:58:46.904Z,17.14
2023-05-07T02:01:15.424Z,17.15
2023-05-07T02:03:44.832Z,16.89
2023-05-07T02:06:20.737Z,16.31
2023-05-07T02:08:49.184Z,15.87
2023-05-07T02:11:18.063Z,15.41
2023-05-07T02:13:47.431Z,15.42
2023-05-07T02:16:15.854Z,15.77
2023-05-07T02:18:43.811Z,15.86
2023-05-07T02:21:11.646Z,15.59
2023-05-07T02:23:39.559Z,15.51
2023-05-07T02:26:07.452Z,15.47
2023-05-07T02:28:36.270Z,15.57
2023-05-07T02:31:07.477Z,15.89
2023-05-07T02:33:37.569Z,16.03
2023-05-07T02:36:09.039Z,16.14
2023-05-07T02:38:40.942Z,16.12
2023-05-07T02:41:08.989Z,16.07
2023-05-07T02:43:36.825Z,15.99
2023-05-07T02:46:05.685Z,16.11
2023-05-07T02:48:37.537Z,16.18
2023-05-07T02:51:06.598Z,16.24
2023-05-07T02:53:36.761Z,16.31
2023-05-07T02:56:05.233Z,16.48
2023-05-07T02:58:32.986Z,16.53
2023-05-07T03:01:02.637Z,16.49
2023-05-07T03:03:37.762Z,16.61
2023-05-07T03:06:06.080Z,16.62
2023-05-07T03:08:34.226Z,16.55
2023-05-07T03:11:02.151Z,16.65
2023-05-07T03:13:30.344Z,16.50
2023-05-07T03:15:58.650Z,16.44
2023-05-07T03:18:26.818Z,16.15
2023-05-07T03:20:56.915Z,16.03
2023-05-07T03:23:25.178Z,16.22
2023-05-07T03:25:53.291Z,16.41
2023-05-07T03:28:21.437Z,16.60
2023-05-07T03:30:55.069Z,16.41
2023-05-07T03:33:23.166Z,16.27
2023-05-07T03:35:51.821Z,15.69
2023-05-07T03:38:25.520Z,15.69
2023-05-07T03:40:53.688Z,15.88
2023-05-07T03:43:22.393Z,16.02
2023-05-07T03:45:57.635Z,16.09
2023-05-07T03:48:28.170Z,16.17
2023-05-07T03:50:59.772Z,15.93
2023-05-07T03:53:33.503Z,15.85
2023-05-07T03:56:02.086Z,15.72
2023-05-07T03:58:33.808Z,15.58
2023-05-07T04:01:06.715Z,15.57
2023-05-07T04:03:35.009Z,15.51
2023-05-07T04:06:03.483Z,15.54
2023-05-07T04:08:34.767Z,15.44
2023-05-07T04:11:03.895Z,15.45
2023-05-07T04:13:33.814Z,15.33
2023-05-07T04:16:04.176Z,15.62
2023-05-07T04:18:32.681Z,15.85
2023-05-07T04:21:01.229Z,15.88
2023-05-07T04:23:29.390Z,15.77
2023-05-07T04:26:02.067Z,16.00
2023-05-07T04:28:42.697Z,16.11
2023-05-07T04:31:10.790Z,16.07
2023-05-07T04:33:40.199Z,15.97
2023-05-07T04:36:12.045Z,16.07
2023-05-07T04:38:48.333Z,16.13
2023-05-07T04:41:19.069Z,16.15
2023-05-07T04:43:47.286Z,16.00
2023-05-07T04:46:17.317Z,16.06
2023-05-07T04:48:46.423Z,16.08
2023-05-07T04:51:14.271Z,16.07
2023-05-07T04:53:42.621Z,16.10
2023-05-07T04:56:10.730Z,16.33
2023-05-07T04:58:43.967Z,16.27
2023-05-07T05:01:13.014Z,16.26
2023-05-07T05:03:44.972Z,16.20
2023-05-07T05:06:13.111Z,16.15
2023-05-07T05:08:43.663Z,16.10
2023-05-07T05:11:12.215Z,15.66
2023-05-07T05:13:40.923Z,15.82
2023-05-07T05:16:15.722Z,16.16
2023-05-07T05:18:44.172Z,16.00
2023-05-07T05:21:14.918Z,16.15
2023-05-07T05:23:45.015Z,16.46
2023-05-07T05:26:14.485Z,16.70
2023-05-07T05:28:42.928Z,16.27
2023-05-07T05:31:11.421Z,16.73
2023-05-07T05:33:41.141Z,17.18
2023-05-07T05:36:11.776Z,17.06
2023-05-07T05:38:40.321Z,16.68
2023-05-07T05:41:09.770Z,16.61
2023-05-07T05:43:38.293Z,16.68
2023-05-07T05:46:07.198Z,16.69
2023-05-07T05:48:35.544Z,16.93
2023-05-07T05:51:07.198Z,16.96
2023-05-07T05:53:35.494Z,16.97
2023-05-07T05:56:04.078Z,17.27
2023-05-07T05:58:33.631Z,17.52
2023-05-07T06:01:04.914Z,17.29
2023-05-07T06:03:34.009Z,17.47
2023-05-07T06:06:08.206Z,17.64
2023-05-07T06:08:55.070Z,17.34
2023-05-07T06:11:28.693Z,17.71
2023-05-07T06:13:56.544Z,17.87
2023-05-07T06:16:26.651Z,17.76
2023-05-07T06:18:54.963Z,17.90
2023-05-07T06:21:24.323Z,17.87
2023-05-07T06:23:53.171Z,17.66
2023-05-07T06:26:21.483Z,17.73
2023-05-07T06:28:49.536Z,18.01
2023-05-07T06:31:21.561Z,18.36
2023-05-07T06:34:01.014Z,19.03
2023-05-07T06:36:36.202Z,18.78
2023-05-07T06:39:12.186Z,18.83
2023-05-07T06:41:40.001Z,19.08
2023-05-07T06:44:16.795Z,18.76
2023-05-07T06:46:49.539Z,18.87
2023-05-07T06:49:17.971Z,19.31
2023-05-07T06:51:47.958Z,19.21
2023-05-07T06:54:16.306Z,18.90
2023-05-07T06:56:45.496Z,18.82
2023-05-07T06:59:13.400Z,19.10
2023-05-07T07:01:42.716Z,19.13
2023-05-07T07:04:12.290Z,19.28
2023-05-07T07:06:42.829Z,19.27
2023-05-07T07:09:15.148Z,19.09
2023-05-07T07:11:43.368Z,19.12
2023-05-07T07:14:11.637Z,19.14
2023-05-07T07:16:47.820Z,19.13
2023-05-07T07:19:17.109Z,19.37
2023-05-07T07:21:45.838Z,19.27
2023-05-07T07:24:20.154Z,18.99
2023-05-07T07:26:49.701Z,19.11
2023-05-07T07:29:19.756Z,19.22
2023-05-07T07:31:52.836Z,19.10
2023-05-07T07:34:22.217Z,19.22
2023-05-07T07:36:50.820Z,19.93
2023-05-07T07:39:21.370Z,20.64
2023-05-07T07:41:51.878Z,20.56
2023-05-07T07:44:21.683Z,20.36
2023-05-07T07:46:54.195Z,19.87
2023-05-07T07:49:23.604Z,19.97
2023-05-07T07:51:52.093Z,19.80
2023-05-07T07:54:21.078Z,20.06
2023-05-07T07:56:49.086Z,20.04
2023-05-07T07:59:19.721Z,20.02
2023-05-07T08:01:49.415Z,20.33
2023-05-07T08:04:18.332Z,19.97
2023-05-07T08:06:46.757Z,19.93
2023-05-07T08:09:19.572Z,20.00
2023-05-07T08:11:49.879Z,20.09
2023-05-07T08:14:17.984Z,20.04
2023-05-07T08:16:48.225Z,19.95
2023-05-07T08:19:18.023Z,20.19
2023-05-07T08:21:48.614Z,20.11
2023-05-07T08:24:17.542Z,20.49
2023-05-07T08:26:47.713Z,20.78
2023-05-07T08:29:18.168Z,21.07
2023-05-07T08:31:46.365Z,21.04
2023-05-07T08:34:14.444Z,21.06
2023-05-07T08:36:44.390Z,21.13
2023-05-07T08:39:16.573Z,21.14
2023-05-07T08:41:47.199Z,21.32
2023-05-07T08:44:16.135Z,21.25
2023-05-07T08:50:28.404Z,21.28
2023-05-07T08:52:57.450Z,21.50
2023-05-07T08:55:25.392Z,21.70
2023-05-07T08:57:54.133Z,22.11
2023-05-07T09:00:24.340Z,22.33
2023-05-07T09:02:54.733Z,22.39
2023-05-07T09:05:22.970Z,22.76
2023-05-07T09:07:54.397Z,22.78
2023-05-07T09:10:23.578Z,23.09
2023-05-07T09:12:52.732Z,22.79
2023-05-07T09:15:21.194Z,22.58
2023-05-07T09:17:49.581Z,23.03
2023-05-07T09:20:18.616Z,23.01
2023-05-07T09:22:46.576Z,23.19
2023-05-07T09:25:29.524Z,23.15
2023-05-07T09:27:58.181Z,23.10
2023-05-07T09:30:30.091Z,22.91
2023-05-07T09:33:00.367Z,23.10
2023-05-07T09:35:29.633Z,23.04
2023-05-07T09:38:04.352Z,23.39
2023-05-07T09:40:37.978Z,24.02
2023-05-07T09:43:11.156Z,24.39
2023-05-07T09:45:40.554Z,25.63
2023-05-07T09:48:10.143Z,26.45
2023-05-07T09:50:43.097Z,25.84
2023-05-07T09:53:11.942Z,25.40
2023-05-07T09:55:41.335Z,25.96
2023-05-07T09:58:09.995Z,25.74
2023-05-07T10:00:39.809Z,26.53
2023-05-07T10:03:13.862Z,27.83
2023-05-07T10:05:51.524Z,26.76
2023-05-07T10:08:22.570Z,26.64
2023-05-07T10:10:56.345Z,26.67
2023-05-07T10:13:28.144Z,26.86
2023-05-07T10:15:59.949Z,25.77
2023-05-07T10:18:34.140Z,25.79
2023-05-07T10:21:10.479Z,25.93
2023-05-07T10:23:39.279Z,25.70
2023-05-07T10:26:10.100Z,26.09
2023-05-07T10:28:40.938Z,26.83
2023-05-07T10:31:17.304Z,27.28
2023-05-07T10:33:49.529Z,27.44
2023-05-07T10:36:19.692Z,27.91
2023-05-07T10:38:48.474Z,28.23
2023-05-07T10:41:20.281Z,28.49
2023-05-07T10:43:49.156Z,30.80
2023-05-07T10:46:29.680Z,31.80
2023-05-07T10:49:17.908Z,30.58
2023-05-07T10:52:21.359Z,31.59
2023-05-07T10:55:22.798Z,32.06
2023-05-07T10:58:32.107Z,31.91
2023-05-07T11:01:39.508Z,29.88
2023-05-07T11:04:18.591Z,28.76
2023-05-07T11:07:14.725Z,28.33
2023-05-07T11:10:02.406Z,27.56
2023-05-07T11:13:00.558Z,26.48
2023-05-07T11:15:41.218Z,27.09
2023-05-07T11:18:25.820Z,27.55
2023-05-07T11:20:56.177Z,28.74
2023-05-07T11:23:53.636Z,29.56
2023-05-07T11:26:32.520Z,30.42
2023-05-07T11:29:01.456Z,30.82
2023-05-07T11:31:33.090Z,32.63
2023-05-07T11:34:03.370Z,32.66
2023-05-07T11:36:33.310Z,31.96
2023-05-07T11:39:03.138Z,32.57
2023-05-07T11:41:38.986Z,33.12
2023-05-07T11:44:06.879Z,33.81
2023-05-07T11:46:37.144Z,32.98
2023-05-07T11:49:05.747Z,31.76
2023-05-07T11:51:33.906Z,32.09
2023-05-07T11:54:01.912Z,32.38
2023-05-07T11:56:30.084Z,32.02
2023-05-07T11:58:58.276Z,31.24
2023-05-07T12:01:26.289Z,31.55
2023-05-07T12:03:57.988Z,32.22
2023-05-07T12:06:26.960Z,31.58
2023-05-07T12:08:56.046Z,31.44
2023-05-07T12:11:26.125Z,31.66
2023-05-07T12:13:58.978Z,31.24
2023-05-07T12:16:27.504Z,31.62
2023-05-07T12:18:56.437Z,32.32
2023-05-07T12:21:26.183Z,31.70
2023-05-07T12:23:54.647Z,31.47
2023-05-07T12:26:23.254Z,33.25
2023-05-07T12:28:53.304Z,34.80
2023-05-07T12:31:21.352Z,36.62
2023-05-07T12:33:49.472Z,37.10
2023-05-07T12:36:19.266Z,37.26
2023-05-07T12:38:52.163Z,37.71
2023-05-07T12:41:20.207Z,38.44
2023-05-07T12:43:48.235Z,40.06
2023-05-07T12:46:18.128Z,38.43
2023-05-07T12:48:46.766Z,38.60
2023-05-07T12:51:16.275Z,39.42
2023-05-07T12:53:44.567Z,38.31
2023-05-07T12:56:13.706Z,37.83
2023-05-07T12:58:41.385Z,36.83
2023-05-07T13:01:11.091Z,34.75
2023-05-07T13:03:40.327Z,33.15
2023-05-07T13:06:10.699Z,31.12
2023-05-07T13:08:41.425Z,31.05
2023-05-07T13:11:11.375Z,32.54
2023-05-07T13:13:41.076Z,32.92
2023-05-07T13:16:10.074Z,32.03
2023-05-07T13:18:39.045Z,32.58
2023-05-07T13:21:07.572Z,33.48
2023-05-07T13:23:36.367Z,32.49
2023-05-07T13:26:11.495Z,31.10
2023-05-07T13:28:44.765Z,31.17
2023-05-07T13:31:12.787Z,31.57
2023-05-07T13:33:40.562Z,31.90
2023-05-07T13:36:08.596Z,32.36
2023-05-07T13:38:36.809Z,33.82
2023-05-07T13:41:04.494Z,32.98
2023-05-07T13:43:33.161Z,33.74
2023-05-07T13:46:02.515Z,33.84
2023-05-07T13:48:31.052Z,32.81
2023-05-07T13:50:58.863Z,31.67
2023-05-07T13:53:26.673Z,32.73
2023-05-07T13:55:54.274Z,33.36
2023-05-07T13:58:22.019Z,32.87
2023-05-07T14:00:49.712Z,32.70
2023-05-07T14:03:20.931Z,34.58
2023-05-07T14:05:50.363Z,34.48
2023-05-07T14:08:20.975Z,34.85
2023-05-07T14:10:49.490Z,34.96
2023-05-07T14:13:18.168Z,34.98
2023-05-07T14:15:47.783Z,35.50
2023-05-07T14:18:15.827Z,35.00
2023-05-07T14:20:47.611Z,34.31
2023-05-07T14:23:15.586Z,33.29
2023-05-07T14:25:44.841Z,31.64
2023-05-07T14:28:12.907Z,30.21
2023-05-07T14:30:40.732Z,30.99
2023-05-07T14:33:08.565Z,30.91
2023-05-07T14:35:36.872Z,30.87
2023-05-07T14:38:05.969Z,29.88
2023-05-07T14:40:34.099Z,29.36
2023-05-07T14:43:01.783Z,28.77
2023-05-07T14:45:29.528Z,27.89
2023-05-07T14:47:57.375Z,27.70
2023-05-07T14:50:25.569Z,27.51
2023-05-07T14:52:53.739Z,27.17
2023-05-07T14:55:23.126Z,27.08
2023-05-07T14:57:50.961Z,27.75
2023-05-07T15:00:18.942Z,27.70
2023-05-07T15:02:46.821Z,28.11
2023-05-07T15:05:15.898Z,27.78
2023-05-07T15:07:44.637Z,27.70
2023-05-07T15:10:13.378Z,27.54
2023-05-07T15:12:42.451Z,27.46
2023-05-07T15:15:11.407Z,27.23
2023-05-07T15:17:39.173Z,26.99
2023-05-07T15:20:07.810Z,26.58
2023-05-07T15:22:36.988Z,26.57
2023-05-07T15:25:05.207Z,26.67
2023-05-07T15:27:32.814Z,26.46
2023-05-07T15:30:02.119Z,26.31
2023-05-07T15:32:29.947Z,26.11
2023-05-07T15:34:58.412Z,25.92
2023-05-07T15:37:26.071Z,25.82
2023-05-07T15:39:53.912Z,25.64
2023-05-07T15:42:21.610Z,25.54
2023-05-07T15:44:49.680Z,25.52
2023-05-07T15:47:18.905Z,25.44
2023-05-07T15:49:46.845Z,25.36
2023-05-07T15:52:15.763Z,25.50
2023-05-07T15:54:43.425Z,25.27
2023-05-07T15:57:11.744Z,25.22
2023-05-07T15:59:39.512Z,25.31
2023-05-07T16:02:08.081Z,25.49
2023-05-07T16:04:37.038Z,25.21
2023-05-07T16:07:04.773Z,24.60
2023-05-07T16:09:32.512Z,22.54
2023-05-07T16:12:01.136Z,21.15
2023-05-07T16:14:28.910Z,20.35
2023-05-07T16:16:57.076Z,19.76
2023-05-07T16:19:25.024Z,19.36
2023-05-07T16:21:54.249Z,18.87
2023-05-07T16:24:22.198Z,18.38
2023-05-07T16:26:49.687Z,18.19
2023-05-07T16:29:17.337Z,18.08
2023-05-07T16:31:45.517Z,18.12
2023-05-07T16:34:14.064Z,18.26
2023-05-07T16:36:41.865Z,18.13
2023-05-07T16:39:11.007Z,17.89
2023-05-07T16:41:39.226Z,17.74
2023-05-07T16:44:07.065Z,17.68
2023-05-07T16:46:34.715Z,17.45
2023-05-07T16:49:02.891Z,17.29
2023-05-07T16:51:30.818Z,17.18
2023-05-07T16:53:58.452Z,16.97
2023-05-07T16:56:27.480Z,17.06
2023-05-07T16:58:55.357Z,16.94
2023-05-07T17:01:23.042Z,16.99
2023-05-07T17:03:51.916Z,16.96
2023-05-07T17:06:20.042Z,16.84
2023-05-07T17:08:47.751Z,16.85
2023-05-07T17:11:15.458Z,16.88
2023-05-07T17:13:44.397Z,16.76
2023-05-07T17:16:12.047Z,16.67
2023-05-07T17:18:40.158Z,16.74
2023-05-07T17:21:08.257Z,16.90
2023-05-07T17:23:35.932Z,16.80
2023-05-07T17:26:04.682Z,16.73
2023-05-07T17:28:32.698Z,16.90
2023-05-07T17:31:01.886Z,16.98
2023-05-07T17:33:29.693Z,16.97
2023-05-07T17:35:58.711Z,17.01
2023-05-07T17:38:26.719Z,16.91
2023-05-07T17:40:54.467Z,17.09
2023-05-07T17:43:23.407Z,16.89
2023-05-07T17:45:51.683Z,16.90
2023-05-07T17:48:21.078Z,16.89
2023-05-07T17:50:49.399Z,17.00
2023-05-07T17:53:36.124Z,16.96
2023-05-07T17:56:04.449Z,17.14
2023-05-07T17:58:33.814Z,17.32
2023-05-07T18:01:04.763Z,17.22
2023-05-07T18:03:36.714Z,17.13
2023-05-07T18:06:08.727Z,17.12
2023-05-07T18:08:38.730Z,17.07
2023-05-07T18:11:07.727Z,17.28
2023-05-07T18:13:36.130Z,17.07
2023-05-07T18:16:04.283Z,17.00
2023-05-07T18:18:34.977Z,16.60
2023-05-07T18:21:05.539Z,16.42
2023-05-07T18:23:35.859Z,16.47
2023-05-07T18:26:07.064Z,16.19
2023-05-07T18:28:36.699Z,15.90
2023-05-07T18:31:06.151Z,15.99
2023-05-07T18:33:34.889Z,15.76
2023-05-07T18:36:04.895Z,15.96
2023-05-07T18:38:33.210Z,15.94
2023-05-07T18:41:06.790Z,15.88
2023-05-07T18:43:35.127Z,15.88
2023-05-07T18:46:06.738Z,15.86
2023-05-07T18:48:34.886Z,15.84
2023-05-07T18:51:04.385Z,15.81
2023-05-07T18:53:33.027Z,15.84
2023-05-07T18:56:02.656Z,16.09
2023-05-07T18:58:30.985Z,16.12
2023-05-07T19:00:58.787Z,15.91
2023-05-07T19:03:26.650Z,15.80
2023-05-07T19:05:56.058Z,15.74
2023-05-07T19:08:25.104Z,15.79
2023-05-07T19:10:52.934Z,15.76
2023-05-07T19:13:20.916Z,15.83
2023-05-07T19:15:48.751Z,15.67
2023-05-07T19:18:16.586Z,15.91
2023-05-07T19:20:44.446Z,15.94
2023-05-07T19:23:12.464Z,16.25
2023-05-07T19:25:41.491Z,16.37
2023-05-07T19:28:10.381Z,16.38
2023-05-07T19:30:39.404Z,15.98
2023-05-07T19:33:07.439Z,15.65
2023-05-07T19:35:37.027Z,15.57
2023-05-07T19:38:06.297Z,15.58
2023-05-07T19:40:34.023Z,15.55
2023-05-07T19:43:04.487Z,15.50
2023-05-07T19:45:32.591Z,15.66
2023-05-07T19:48:00.580Z,15.63
2023-05-07T19:50:28.566Z,15.84
2023-05-07T19:52:56.454Z,15.89
2023-05-07T19:55:24.368Z,15.78
2023-05-07T19:57:52.046Z,15.66
2023-05-07T20:00:22.045Z,15.74
2023-05-07T20:02:51.417Z,15.85
2023-05-07T20:05:18.975Z,15.98
2023-05-07T20:07:46.957Z,16.21
2023-05-07T20:10:15.167Z,16.62
2023-05-07T20:12:43.105Z,16.95
2023-05-07T20:15:12.024Z,16.88
2023-05-07T20:17:41.354Z,16.86
2023-05-07T20:20:09.526Z,16.92
2023-05-07T20:22:37.667Z,16.80
2023-05-07T20:25:06.171Z,16.79
2023-05-07T20:27:35.088Z,16.70
2023-05-07T20:30:02.990Z,16.74
2023-05-07T20:32:30.907Z,16.82
2023-05-07T20:35:00.063Z,16.84
2023-05-07T20:37:29.464Z,16.74
2023-05-07T20:39:57.715Z,16.79
2023-05-07T20:42:26.335Z,16.73
2023-05-07T20:44:54.100Z,16.74
2023-05-07T20:47:21.940Z,16.58
2023-05-07T20:49:50.535Z,16.58
2023-05-07T20:52:19.994Z,16.39
2023-05-07T20:54:50.011Z,16.39
2023-05-07T20:57:19.499Z,16.35
2023-05-07T20:59:47.227Z,16.33
2023-05-07T21:02:14.958Z,16.39
2023-05-07T21:04:43.131Z,16.51
2023-05-07T21:07:10.922Z,16.69
2023-05-07T21:09:40.234Z,16.51
2023-05-07T21:12:08.491Z,16.37
2023-05-07T21:14:37.251Z,16.45
2023-05-07T21:17:07.292Z,16.45
2023-05-07T21:19:35.342Z,16.38
2023-05-07T21:22:04.252Z,16.44
2023-05-07T21:24:32.037Z,16.55
2023-05-07T21:27:01.793Z,16.60
2023-05-07T21:29:29.777Z,16.72
2023-05-07T21:31:57.628Z,16.75
2023-05-07T21:34:25.598Z,16.79
2023-05-07T21:36:53.326Z,16.93
2023-05-07T21:39:22.935Z,16.95
2023-05-07T21:41:51.719Z,16.90
2023-05-07T21:44:21.492Z,17.01
2023-05-07T21:46:49.486Z,17.12
2023-05-07T21:49:20.168Z,17.05
2023-05-07T21:51:48.306Z,16.91
2023-05-07T21:54:17.218Z,16.62
2023-05-07T21:56:46.341Z,16.56
2023-05-07T21:59:15.396Z,16.52
2023-05-07T22:01:46.025Z,16.47
2023-05-07T22:04:13.958Z,16.47
2023-05-07T22:06:44.462Z,16.40
2023-05-07T22:09:12.952Z,16.57
2023-05-07T22:11:41.213Z,16.66
2023-05-07T22:14:09.259Z,16.67
2023-05-07T22:16:37.500Z,16.87
2023-05-07T22:19:06.969Z,16.77
2023-05-07T22:21:35.765Z,16.71
2023-05-07T22:24:07.030Z,16.80
2023-05-07T22:26:35.332Z,16.87
2023-05-07T22:29:03.195Z,16.73
2023-05-07T22:31:31.228Z,16.61
2023-05-07T22:33:59.314Z,16.54
2023-05-07T22:36:28.506Z,16.73
2023-05-07T22:38:56.294Z,16.95
2023-05-07T22:41:24.710Z,16.93
2023-05-07T22:43:52.972Z,16.89
2023-05-07T22:46:20.587Z,17.04
2023-05-07T22:48:48.385Z,17.19
2023-05-07T22:51:16.253Z,17.20
2023-05-07T22:53:46.680Z,16.53
2023-05-07T22:56:14.521Z,16.02
2023-05-07T22:58:42.389Z,15.88
2023-05-07T23:01:14.652Z,15.92
2023-05-07T23:03:43.286Z,15.89
2023-05-07T23:06:11.511Z,15.84
2023-05-07T23:08:41.624Z,15.67
2023-05-07T23:11:11.150Z,15.48
2023-05-07T23:13:39.250Z,15.42
2023-05-07T23:16:07.507Z,15.55
2023-05-07T23:18:36.207Z,15.75
2023-05-07T23:21:04.379Z,15.65
2023-05-07T23:23:35.044Z,15.67
2023-05-07T23:26:03.197Z,15.35
2023-05-07T23:28:32.550Z,15.41
2023-05-07T23:31:01.107Z,15.59
2023-05-07T23:33:29.016Z,15.52
2023-05-07T23:36:01.125Z,15.56
2023-05-07T23:38:29.372Z,15.35
2023-05-07T23:40:57.390Z,15.45
2023-05-07T23:43:25.723Z,15.52
2023-05-07T23:45:55.083Z,15.54
2023-05-07T23:48:23.823Z,15.94
2023-05-07T23:50:51.802Z,16.19
2023-05-07T23:53:20.651Z,16.04
2023-05-07T23:55:48.637Z,15.86
2023-05-07T23:58:17.248Z,15.91
